Airfield :
LOGIN :

Register | Disclaimer

   EN    FR    IT 

 










Legend :    VFR   Marginal VFR   IFR   Intensive IFR   Very Intensive IFR
Visi :
Ceiling :
>= 8 km
>= 3000ft
5 to 8 km
1000 to 3000 ft
1500m to 5 km
500 to 1000 ft
800 to 1500m
200 to 500 ft
< 800m
< 200 ft
Symbols :   Thunderstorms  Fog  Heavy snow  Heavy precipitations  Wind > 20 kt
SIGMETs :     Misc.  Thunderstorms  Icing  Turbulence  Mountain Waves  Volcanic Ashes






- Airport Elevation : 502 ft
- IATA code : ORK


EICK - Cork

CURRENT METAR :
  • 040600Z 23009KT 9999 FEW002 BKN004 13/13 Q1007 NOSIG

EXPIRED METARs :
  • 040530Z 23009KT 9999 FEW002 BKN004 13/13 Q1007 TEMPO BKN002
  • 040500Z 24009KT 9999 FEW002 BKN005 13/13 Q1007 TEMPO BKN002
  • 040430Z 25007KT 9999 FEW002 BKN005 13/13 Q1007 TEMPO BKN002
  • 040400Z 25012KT 9999 FEW002 BKN004 BKN008 13/12 Q1007 TEMPO BKN002
  • 040330Z 24012KT 9999 FEW002 BKN004 13/13 Q1007 TEMPO BKN002

TAF TAF EICK
Valid from the 04 at 06:00 until the 05 at 06:00 UTC


040500Z 0406/0506 24010KT 7000 BKN005
TEMPO 0406/0413 3000 -RADZ BKN003
PROB30
TEMPO 0406/0412 0400 FG BKN001
BECMG 0418/0420 23018G28KT BKN012
BECMG 0500/0502 27018G32KT
BECMG 0503/0505 27015KT



MET'MAP, your aeronautical weather chart ! - Copyright ORBIFLY December 2007 - Disclaimer

ORBIFLY MET'MAP TEAM :

Programming & Development : Alexandra Zaïnal
Concept & original design : Baudouin d'Aumeries
Assistance for programming : Marc-Olivier Méhu
Technical & hardware support : Manuel Goepfert

Contact : metmap@orbifly.com




SOURCES & CREDITS :

   NOAA